Time;durP1;ratioP1;P1;durP2;ratioP2;P2;SDS_P1;SDS_P2;PMS_P1;PMS_P2;Temp;Humidity;BMP_temperature;BMP_pressure;BME280_temperature;BME280_humidity;BME280_pressure;Samples;Min_cycle;Max_cycle;Signal;HPM_P1;HPM_P2
2021/08/15 13:40:00;;;;;;;4.36;0.91;;;29.00;99.90;;;;;;3727951;27;10001701;-66
2021/08/15 13:42:05;;;;;;;2.13;0.90;;;29.10;99.90;;;;;;4175383;28;20487;-65
2021/08/15 13:44:09;;;;;;;3.30;1.08;;;29.00;99.90;;;;;;4168446;28;20046;-64
2021/08/15 13:46:14;;;;;;;0.90;0.60;;;29.00;99.90;;;;;;4174781;28;20060;-65
2021/08/15 13:48:18;;;;;;;1.27;0.90;;;29.00;99.90;;;;;;4173095;28;20048;-67
2021/08/15 13:50:23;;;;;;;3.20;0.98;;;28.90;99.90;;;;;;4173377;28;20126;-65
2021/08/15 13:52:27;;;;;;;8.27;1.20;;;28.90;99.90;;;;;;4169965;28;20045;-66
2021/08/15 13:54:32;;;;;;;5.43;1.17;;;28.90;99.90;;;;;;4171391;28;20435;-66
2021/08/15 13:56:36;;;;;;;3.50;0.95;;;28.90;99.90;;;;;;4171974;28;20128;-66
2021/08/15 13:58:52;;;;;;;2.65;1.20;;;28.90;99.90;;;;;;4170602;28;20503;-65
2021/08/15 14:00:57;;;;;;;2.28;1.00;;;28.90;99.90;;;;;;4174554;28;20498;-65
2021/08/15 14:03:02;;;;;;;3.13;1.42;;;28.90;99.90;;;;;;4175887;28;20041;-65
2021/08/15 14:05:07;;;;;;;4.60;1.45;;;28.90;99.90;;;;;;4176348;28;20049;-65
2021/08/15 14:07:12;;;;;;;3.63;1.40;;;28.90;99.90;;;;;;4176224;28;20052;-65
2021/08/15 14:09:17;;;;;;;2.38;1.58;;;28.90;99.90;;;;;;4175184;28;20080;-65
2021/08/15 14:11:21;;;;;;;5.07;1.58;;;28.90;99.90;;;;;;4175556;28;20064;-65
2021/08/15 14:13:26;;;;;;;4.05;1.80;;;28.90;99.90;;;;;;4175077;28;20419;-65
2021/08/15 14:15:31;;;;;;;3.90;1.65;;;28.80;99.90;;;;;;4176314;28;20049;-65
2021/08/15 14:17:36;;;;;;;4.72;2.00;;;28.80;99.90;;;;;;4175706;28;20057;-65
2021/08/15 14:19:42;;;;;;;3.63;2.00;;;28.80;99.90;;;;;;4167548;28;20045;-65
2021/08/15 14:21:47;;;;;;;3.30;2.30;;;28.80;99.90;;;;;;4167528;28;20049;-66
2021/08/15 14:23:51;;;;;;;2.90;1.92;;;28.80;99.90;;;;;;4166008;28;20065;-65
2021/08/15 14:25:55;;;;;;;2.80;1.90;;;28.80;99.90;;;;;;4175569;28;20090;-65
2021/08/15 14:28:00;;;;;;;2.55;1.65;;;28.70;99.90;;;;;;4178250;28;20041;-65
2021/08/15 14:30:05;;;;;;;4.18;1.80;;;28.70;99.90;;;;;;4175646;28;20069;-66
2021/08/15 14:32:09;;;;;;;4.75;1.80;;;28.70;99.90;;;;;;4175908;28;20563;-66
2021/08/15 14:34:17;;;;;;;2.58;1.73;;;28.70;99.90;;;;;;4178357;28;20099;-65
2021/08/15 14:36:21;;;;;;;2.53;1.90;;;28.70;99.90;;;;;;4175279;28;20491;-64
2021/08/15 14:38:25;;;;;;;5.45;1.70;;;28.70;99.90;;;;;;4183893;28;20147;-65
2021/08/15 14:40:30;;;;;;;2.55;1.40;;;28.70;99.90;;;;;;4174121;28;20037;-65
2021/08/15 14:42:34;;;;;;;2.47;1.50;;;28.70;99.90;;;;;;4174636;28;20100;-65
2021/08/15 14:44:39;;;;;;;8.27;2.17;;;28.70;99.90;;;;;;4174978;28;20638;-65
2021/08/15 14:46:45;;;;;;;3.45;1.50;;;28.60;99.90;;;;;;4174616;28;20061;-65
2021/08/15 14:48:49;;;;;;;3.83;1.40;;;28.70;99.90;;;;;;4174800;28;20529;-65
2021/08/15 14:50:54;;;;;;;2.80;1.20;;;28.60;99.90;;;;;;4163997;28;20057;-65
2021/08/15 14:52:58;;;;;;;3.28;1.30;;;28.60;99.90;;;;;;4163653;28;20061;-65
2021/08/15 14:55:03;;;;;;;5.00;1.10;;;28.60;99.90;;;;;;4177864;28;20049;-65
2021/08/15 14:57:08;;;;;;;4.60;1.30;;;28.60;99.90;;;;;;4163651;28;20076;-65
2021/08/15 14:59:12;;;;;;;3.58;1.50;;;28.60;99.90;;;;;;4163363;28;20073;-65
2021/08/15 15:01:17;;;;;;;4.28;1.60;;;28.60;99.90;;;;;;4163682;28;20060;-65
2021/08/15 15:03:22;;;;;;;1.90;1.30;;;28.60;99.90;;;;;;4163844;28;20103;-65
2021/08/15 15:05:27;;;;;;;3.55;1.30;;;28.60;99.90;;;;;;4164134;28;20496;-65
2021/08/15 15:07:32;;;;;;;5.50;1.25;;;28.70;99.90;;;;;;4163569;28;20436;-65
2021/08/15 15:09:37;;;;;;;6.85;1.30;;;28.60;99.90;;;;;;4163747;28;20084;-65
2021/08/15 15:11:41;;;;;;;5.78;1.48;;;28.60;99.90;;;;;;4163794;28;20089;-65
2021/08/15 15:13:45;;;;;;;3.15;1.42;;;28.60;99.90;;;;;;4164061;28;20144;-65
2021/08/15 15:15:50;;;;;;;3.35;1.58;;;28.50;99.90;;;;;;4169686;28;20057;-66
2021/08/15 15:17:54;;;;;;;2.42;1.42;;;28.60;99.90;;;;;;4163160;28;20049;-66
2021/08/15 15:19:59;;;;;;;4.85;1.77;;;28.60;99.90;;;;;;4162084;28;20095;-64
2021/08/15 15:22:04;;;;;;;1.67;1.17;;;28.60;99.90;;;;;;4156973;28;20045;-66
2021/08/15 15:24:08;;;;;;;2.55;1.23;;;28.60;99.90;;;;;;4153643;28;20136;-66
2021/08/15 15:26:13;;;;;;;2.88;1.30;;;28.60;99.90;;;;;;4159519;28;20049;-65
2021/08/15 15:28:17;;;;;;;2.88;1.45;;;28.50;99.90;;;;;;4161692;28;20046;-66
2021/08/15 15:30:21;;;;;;;3.85;1.75;;;28.50;99.90;;;;;;4159803;28;20050;-66
2021/08/15 15:32:26;;;;;;;2.95;1.73;;;28.60;99.90;;;;;;4159363;28;20132;-66
2021/08/15 15:34:31;;;;;;;3.15;1.48;;;28.60;99.90;;;;;;4159640;28;20610;-65
2021/08/15 15:36:35;;;;;;;4.05;1.73;;;28.60;99.90;;;;;;4161047;28;20587;-67
2021/08/15 15:38:39;;;;;;;3.88;1.42;;;28.60;99.90;;;;;;4158170;28;20566;-66
2021/08/15 15:40:44;;;;;;;3.58;1.52;;;28.50;99.90;;;;;;4157198;28;20041;-66
2021/08/15 15:42:49;;;;;;;3.20;1.30;;;28.60;99.90;;;;;;4161247;28;20039;-66
2021/08/15 15:44:53;;;;;;;2.90;1.30;;;28.50;99.90;;;;;;4161198;28;20095;-65
2021/08/15 15:46:58;;;;;;;4.15;1.70;;;28.60;99.90;;;;;;4161327;28;20053;-66
2021/08/15 15:49:03;;;;;;;5.72;1.73;;;28.40;99.90;;;;;;4161241;28;20365;-65
2021/08/15 15:51:07;;;;;;;3.55;1.60;;;28.50;99.90;;;;;;4160039;28;20081;-65
2021/08/15 15:53:11;;;;;;;2.70;1.33;;;28.50;99.90;;;;;;4161482;28;20046;-66
2021/08/15 15:55:16;;;;;;;3.55;1.70;;;28.50;99.90;;;;;;4161343;28;20061;-66
2021/08/15 15:57:20;;;;;;;3.80;1.85;;;28.50;99.90;;;;;;4160210;28;20566;-66
2021/08/15 15:59:26;;;;;;;2.60;1.80;;;28.40;99.90;;;;;;4161103;28;20296;-66
2021/08/15 16:01:31;;;;;;;3.90;1.85;;;28.40;99.90;;;;;;4161608;28;20041;-66
2021/08/15 16:03:35;;;;;;;4.10;1.60;;;28.50;99.90;;;;;;4160430;28;20045;-66
2021/08/15 16:05:40;;;;;;;2.55;1.50;;;28.40;99.90;;;;;;4160543;28;20072;-66
2021/08/15 16:07:44;;;;;;;2.60;1.73;;;28.40;99.90;;;;;;4159384;28;20099;-65
2021/08/15 16:09:48;;;;;;;2.95;1.40;;;28.50;99.90;;;;;;4157370;28;20045;-65
2021/08/15 16:11:53;;;;;;;3.63;1.60;;;28.40;99.90;;;;;;4148272;28;20492;-66
2021/08/15 16:13:57;;;;;;;2.72;1.55;;;28.40;99.90;;;;;;4156777;28;20132;-65
2021/08/15 16:16:01;;;;;;;2.88;1.48;;;28.40;99.90;;;;;;4162730;28;20060;-66
2021/08/15 16:18:06;;;;;;;3.97;1.30;;;28.40;99.90;;;;;;4161613;28;20042;-65
2021/08/15 16:20:11;;;;;;;1.70;1.20;;;28.40;99.90;;;;;;4162171;28;20053;-64
2021/08/15 16:22:16;;;;;;;2.83;1.50;;;28.40;99.90;;;;;;4160981;28;20103;-66
2021/08/15 16:24:21;;;;;;;2.25;1.45;;;28.40;99.90;;;;;;4162116;28;20076;-66
2021/08/15 16:26:25;;;;;;;2.53;1.15;;;28.30;99.90;;;;;;4160716;28;20053;-65
2021/08/15 16:28:29;;;;;;;3.00;1.33;;;28.30;99.90;;;;;;4162096;28;20053;-64
2021/08/15 16:30:34;;;;;;;2.80;1.30;;;28.40;99.90;;;;;;4161380;28;20053;-66
2021/08/15 16:32:39;;;;;;;3.38;1.60;;;28.40;99.90;;;;;;4161802;28;20309;-66
2021/08/15 16:34:43;;;;;;;2.22;1.50;;;28.40;99.90;;;;;;4162116;28;20054;-65
2021/08/15 16:36:47;;;;;;;2.70;1.45;;;28.40;99.90;;;;;;4158018;28;20049;-66
2021/08/15 16:38:52;;;;;;;4.05;1.90;;;28.30;99.90;;;;;;4159962;28;20156;-66
2021/08/15 16:40:56;;;;;;;3.30;1.55;;;28.30;99.90;;;;;;4160287;28;20123;-65
2021/08/15 16:43:01;;;;;;;2.92;1.60;;;28.30;99.90;;;;;;4172716;28;20045;-65
2021/08/15 16:45:05;;;;;;;2.13;1.33;;;28.30;99.90;;;;;;4159192;28;20052;-65
2021/08/15 16:47:10;;;;;;;3.33;1.70;;;28.30;99.90;;;;;;4160267;28;20211;-65
2021/08/15 16:49:15;;;;;;;4.05;1.52;;;28.20;99.90;;;;;;4161048;28;20053;-65
2021/08/15 16:51:20;;;;;;;2.28;1.58;;;28.30;99.90;;;;;;4148214;28;20567;-65
2021/08/15 16:53:24;;;;;;;3.55;1.50;;;28.30;99.90;;;;;;4156506;28;20056;-66
2021/08/15 16:55:28;;;;;;;2.60;1.48;;;28.30;99.90;;;;;;4157389;28;20091;-66
2021/08/15 16:57:33;;;;;;;3.45;1.52;;;28.30;99.90;;;;;;4160289;28;20077;-66
2021/08/15 16:59:38;;;;;;;3.50;1.25;;;28.30;99.90;;;;;;4159368;28;20045;-65
2021/08/15 17:01:43;;;;;;;3.08;1.30;;;28.20;99.90;;;;;;4156283;28;20045;-65
2021/08/15 17:03:48;;;;;;;4.90;1.52;;;28.20;99.90;;;;;;4161256;28;20167;-66
2021/08/15 17:05:53;;;;;;;2.88;1.13;;;28.20;99.90;;;;;;4160504;28;20049;-66
2021/08/15 17:07:57;;;;;;;2.90;1.30;;;28.20;99.90;;;;;;4160281;28;20072;-66
2021/08/15 17:10:02;;;;;;;2.38;1.77;;;28.20;99.90;;;;;;4164359;28;20053;-65
2021/08/15 17:12:07;;;;;;;1.83;1.20;;;28.20;99.90;;;;;;4161493;28;20156;-66
2021/08/15 17:14:11;;;;;;;2.78;1.48;;;28.30;99.90;;;;;;4161131;28;20053;-65
2021/08/15 17:16:16;;;;;;;3.55;1.52;;;28.20;99.90;;;;;;4158360;28;20557;-66
2021/08/15 17:18:21;;;;;;;3.80;1.35;;;28.30;99.90;;;;;;4153860;28;20049;-66
2021/08/15 17:20:26;;;;;;;2.75;1.75;;;28.20;99.90;;;;;;4153962;28;20044;-66
2021/08/15 17:22:30;;;;;;;2.83;1.55;;;28.20;99.90;;;;;;4161086;28;20196;-66
2021/08/15 17:24:39;;;;;;;5.53;1.50;;;28.20;99.90;;;;;;4153604;28;20140;-66
2021/08/15 17:26:44;;;;;;;2.92;1.70;;;28.20;99.90;;;;;;4159933;28;20049;-66
2021/08/15 17:28:48;;;;;;;4.65;1.92;;;28.10;99.90;;;;;;4155358;28;20056;-66
2021/08/15 17:30:53;;;;;;;4.85;1.50;;;28.10;99.90;;;;;;4156219;28;20321;-66
2021/08/15 17:32:58;;;;;;;2.85;1.70;;;28.10;99.90;;;;;;4155380;28;20537;-66
2021/08/15 17:35:03;;;;;;;2.53;1.40;;;28.10;99.90;;;;;;4156810;28;20499;-66
2021/08/15 17:37:07;;;;;;;2.22;1.42;;;28.10;99.90;;;;;;4160041;28;20052;-66
2021/08/15 17:39:11;;;;;;;5.70;1.90;;;28.10;99.90;;;;;;4160933;28;20084;-66
2021/08/15 17:41:16;;;;;;;3.42;1.67;;;28.10;99.90;;;;;;4155521;28;20067;-66
2021/08/15 17:43:20;;;;;;;3.88;1.52;;;28.10;99.90;;;;;;4143308;28;20408;-66
2021/08/15 17:45:24;;;;;;;3.58;1.70;;;28.10;99.90;;;;;;4160845;28;20053;-66
2021/08/15 17:47:29;;;;;;;3.78;1.73;;;28.10;99.90;;;;;;4161216;28;20520;-66
2021/08/15 17:49:36;;;;;;;3.95;1.55;;;28.10;99.90;;;;;;4161653;28;20083;-66
2021/08/15 17:51:42;;;;;;;3.25;1.60;;;28.10;99.90;;;;;;4154062;28;20136;-65
2021/08/15 17:53:46;;;;;;;4.20;1.52;;;28.10;99.90;;;;;;4159879;28;20076;-65
2021/08/15 17:55:51;;;;;;;3.30;1.70;;;28.00;99.90;;;;;;4161238;28;20087;-66
2021/08/15 17:57:56;;;;;;;2.67;1.38;;;28.00;99.90;;;;;;4160392;28;20132;-66
2021/08/15 18:00:00;;;;;;;2.22;1.30;;;28.00;99.90;;;;;;4158996;28;20874;-66
2021/08/15 18:02:15;;;;;;;2.65;1.40;;;28.10;99.90;;;;;;4160616;28;20168;-66
2021/08/15 18:04:22;;;;;;;3.22;1.45;;;28.00;99.90;;;;;;4157516;28;20048;-66
2021/08/15 18:06:27;;;;;;;2.35;1.40;;;28.00;99.90;;;;;;4161563;28;20045;-66
2021/08/15 18:08:33;;;;;;;2.13;1.50;;;28.00;99.90;;;;;;4161279;28;20103;-66
2021/08/15 18:10:38;;;;;;;2.28;1.42;;;28.00;99.90;;;;;;4161275;28;20527;-66
2021/08/15 18:12:43;;;;;;;2.70;1.70;;;28.00;99.90;;;;;;4157819;28;20045;-65
2021/08/15 18:14:48;;;;;;;5.80;1.73;;;28.00;99.90;;;;;;4159032;28;20380;-66
2021/08/15 18:16:53;;;;;;;2.85;1.27;;;28.00;99.90;;;;;;4161027;28;20483;-66
2021/08/15 18:18:57;;;;;;;3.42;1.40;;;28.00;99.90;;;;;;4161386;28;20432;-66
2021/08/15 18:21:02;;;;;;;3.83;1.52;;;28.00;99.90;;;;;;4161325;28;20042;-66
2021/08/15 18:23:06;;;;;;;2.10;1.20;;;28.00;99.90;;;;;;4158969;28;20052;-66
2021/08/15 18:25:10;;;;;;;3.97;1.65;;;28.00;99.90;;;;;;4161247;28;20132;-66
2021/08/15 18:27:15;;;;;;;3.50;1.35;;;28.00;99.90;;;;;;4159662;28;20064;-66
2021/08/15 18:29:19;;;;;;;2.58;1.30;;;28.00;99.90;;;;;;4160311;28;20073;-66
2021/08/15 18:31:25;;;;;;;2.40;1.15;;;28.00;99.90;;;;;;4163719;28;20060;-66
2021/08/15 18:33:30;;;;;;;3.83;1.70;;;27.90;99.90;;;;;;4162154;28;20045;-66
2021/08/15 18:35:34;;;;;;;2.42;1.70;;;27.90;99.90;;;;;;4160348;28;20037;-65
2021/08/15 18:37:39;;;;;;;2.42;1.48;;;28.00;99.90;;;;;;4161320;28;20123;-66
2021/08/15 18:39:45;;;;;;;3.05;1.60;;;28.00;99.90;;;;;;4153047;28;20046;-65
2021/08/15 18:41:50;;;;;;;5.28;1.70;;;28.00;99.90;;;;;;4152207;28;20128;-66
2021/08/15 18:43:57;;;;;;;5.38;1.60;;;28.00;99.90;;;;;;4159789;28;20063;-65
2021/08/15 18:46:01;;;;;;;3.22;1.33;;;28.00;99.90;;;;;;4163528;28;20050;-65
2021/08/15 18:48:07;;;;;;;2.78;1.38;;;28.00;99.90;;;;;;4156457;28;20056;-65
2021/08/15 18:50:11;;;;;;;3.40;1.48;;;28.00;99.90;;;;;;4160835;28;20052;-65
2021/08/15 18:52:16;;;;;;;2.78;1.40;;;28.00;99.90;;;;;;4163423;28;20083;-65
2021/08/15 18:54:21;;;;;;;2.65;1.40;;;28.00;99.90;;;;;;4163409;28;20049;-65
2021/08/15 18:56:25;;;;;;;5.18;1.73;;;27.90;99.90;;;;;;4161812;28;20423;-66
2021/08/15 18:58:31;;;;;;;2.88;1.20;;;27.90;99.90;;;;;;4159209;28;20053;-65
2021/08/15 19:00:37;;;;;;;10.27;1.58;;;27.90;99.90;;;;;;4160627;28;20108;-65
2021/08/15 19:02:41;;;;;;;2.80;1.45;;;27.90;99.90;;;;;;4145654;28;20088;-66
2021/08/15 19:04:46;;;;;;;4.22;1.80;;;27.90;99.90;;;;;;4155304;28;20056;-65
2021/08/15 19:06:51;;;;;;;2.92;1.95;;;27.90;99.90;;;;;;4158475;28;20041;-65
2021/08/15 19:08:56;;;;;;;2.55;1.73;;;27.90;99.90;;;;;;4163439;28;20053;-65
2021/08/15 19:11:00;;;;;;;2.17;1.50;;;27.90;99.90;;;;;;4163288;28;20057;-65
2021/08/15 19:13:05;;;;;;;5.93;1.88;;;27.90;99.90;;;;;;4162381;28;20115;-65
2021/08/15 19:15:09;;;;;;;3.97;1.60;;;27.90;99.90;;;;;;4170808;28;20056;-65
2021/08/15 19:17:14;;;;;;;4.22;1.90;;;27.90;99.90;;;;;;4161662;28;20037;-65
2021/08/15 19:19:19;;;;;;;5.18;2.13;;;27.90;99.90;;;;;;4163315;28;20412;-66
2021/08/15 19:21:23;;;;;;;5.07;1.65;;;27.90;99.90;;;;;;4168427;28;20087;-66
2021/08/15 19:23:27;;;;;;;4.32;1.90;;;27.90;99.90;;;;;;4161483;28;20060;-66
2021/08/15 19:25:32;;;;;;;3.33;1.40;;;27.90;99.90;;;;;;4156665;28;20166;-66
2021/08/15 19:27:37;;;;;;;2.65;1.40;;;27.80;99.90;;;;;;4156780;28;20041;-66
2021/08/15 19:29:41;;;;;;;3.47;1.77;;;27.90;99.90;;;;;;4155441;28;20049;-66
2021/08/15 19:31:45;;;;;;;2.97;1.60;;;27.80;99.90;;;;;;4161461;28;20072;-65
2021/08/15 19:33:50;;;;;;;1.92;1.30;;;27.80;99.90;;;;;;4163339;28;20049;-65
2021/08/15 19:35:54;;;;;;;2.33;1.40;;;27.80;99.90;;;;;;4160692;28;20087;-64
2021/08/15 19:37:58;;;;;;;2.60;1.50;;;27.80;99.90;;;;;;4161100;28;20053;-65
2021/08/15 19:40:08;;;;;;;3.25;1.50;;;27.80;99.90;;;;;;4161720;28;20050;-65
2021/08/15 19:42:13;;;;;;;2.67;1.45;;;27.80;99.90;;;;;;4158056;28;20042;-65
2021/08/15 19:44:17;;;;;;;2.30;1.40;;;27.80;99.90;;;;;;4156119;28;20033;-66
2021/08/15 19:46:21;;;;;;;2.28;1.42;;;27.80;99.90;;;;;;4162278;28;20045;-66
2021/08/15 19:48:27;;;;;;;2.47;1.20;;;27.80;99.90;;;;;;4161019;28;20084;-66
2021/08/15 19:50:32;;;;;;;2.88;1.20;;;27.80;99.90;;;;;;4162508;28;20132;-66
2021/08/15 19:52:36;;;;;;;3.75;1.30;;;27.80;99.90;;;;;;4160798;28;20049;-65
2021/08/15 19:54:41;;;;;;;5.28;1.10;;;27.80;99.90;;;;;;4156854;28;20064;-66
2021/08/15 19:56:46;;;;;;;4.60;1.20;;;27.80;99.90;;;;;;4161419;28;20045;-66
2021/08/15 19:59:08;;;;;;;3.08;1.30;;;27.80;99.90;;;;;;4155734;28;20053;-65
2021/08/15 20:01:12;;;;;;;3.33;1.30;;;27.80;99.90;;;;;;4161508;28;20041;-65
2021/08/15 20:03:17;;;;;;;3.60;1.60;;;27.80;99.90;;;;;;4161890;28;20047;-65
2021/08/15 20:05:22;;;;;;;3.38;1.48;;;27.80;99.90;;;;;;4154313;28;20104;-65
2021/08/15 20:07:26;;;;;;;1.63;1.35;;;27.80;99.90;;;;;;4155881;28;20380;-66
2021/08/15 20:09:31;;;;;;;4.88;1.83;;;27.80;99.90;;;;;;4157709;28;20276;-66
2021/08/15 20:11:35;;;;;;;4.10;1.30;;;27.80;99.90;;;;;;4162235;28;20081;-66
2021/08/15 20:13:40;;;;;;;2.88;1.35;;;27.70;99.90;;;;;;4160513;28;20075;-66
2021/08/15 20:15:45;;;;;;;2.85;1.45;;;27.80;99.90;;;;;;4156638;28;20068;-66
2021/08/15 20:17:49;;;;;;;4.95;1.70;;;27.70;99.90;;;;;;4153241;28;20042;-66
2021/08/15 20:19:55;;;;;;;4.65;1.27;;;27.70;99.90;;;;;;4159462;28;20049;-66
2021/08/15 20:22:01;;;;;;;3.13;1.35;;;27.80;99.90;;;;;;4161751;28;20057;-66
2021/08/15 20:24:05;;;;;;;6.47;1.42;;;27.70;99.90;;;;;;4167388;28;20049;-66
2021/08/15 20:26:10;;;;;;;5.35;1.60;;;27.70;99.90;;;;;;4153862;28;20045;-65
2021/08/15 20:28:15;;;;;;;1.77;1.25;;;27.70;99.90;;;;;;4157944;28;20084;-66
2021/08/15 20:30:19;;;;;;;2.92;1.52;;;27.70;99.90;;;;;;4161860;28;20081;-66
2021/08/15 20:32:24;;;;;;;4.10;1.77;;;27.70;99.90;;;;;;4160189;28;20474;-65
2021/08/15 20:34:29;;;;;;;4.68;1.50;;;27.70;99.90;;;;;;4160326;28;20099;-65
2021/08/15 20:36:33;;;;;;;2.33;1.25;;;27.70;99.90;;;;;;4159309;28;20049;-65
2021/08/15 20:38:37;;;;;;;5.20;1.50;;;27.60;99.90;;;;;;4137195;28;20050;-66
2021/08/15 20:40:42;;;;;;;4.00;1.90;;;27.60;99.90;;;;;;4142597;28;20053;-65
2021/08/15 20:42:47;;;;;;;3.35;1.50;;;27.60;99.90;;;;;;4142750;28;20042;-64
2021/08/15 20:44:51;;;;;;;2.80;1.70;;;27.60;99.90;;;;;;4143034;28;20042;-65
2021/08/15 20:46:55;;;;;;;3.55;1.40;;;27.60;99.90;;;;;;4143395;28;20491;-65
2021/08/15 20:49:00;;;;;;;4.30;1.40;;;27.60;99.90;;;;;;4142117;28;20042;-66
2021/08/15 20:51:06;;;;;;;3.08;1.50;;;27.60;99.90;;;;;;4143228;28;20060;-66
2021/08/15 20:53:10;;;;;;;4.40;1.52;;;27.60;99.90;;;;;;4137327;28;20559;-66
2021/08/15 20:55:15;;;;;;;7.88;2.35;;;27.60;99.90;;;;;;4142832;28;20451;-66
2021/08/15 20:57:19;;;;;;;3.28;1.63;;;27.50;99.90;;;;;;4139791;28;20074;-65
2021/08/15 20:59:24;;;;;;;5.85;1.70;;;27.50;99.90;;;;;;4137887;28;20053;-66
2021/08/15 21:01:28;;;;;;;4.82;1.83;;;27.50;99.90;;;;;;4143013;28;20818;-66
2021/08/15 21:03:34;;;;;;;2.80;1.40;;;27.60;99.90;;;;;;4142473;28;20088;-65
2021/08/15 21:05:38;;;;;;;4.30;2.05;;;27.60;99.90;;;;;;4142677;28;20046;-66
2021/08/15 21:07:42;;;;;;;3.55;1.52;;;27.60;99.90;;;;;;4142604;28;20081;-66
2021/08/15 21:09:47;;;;;;;2.30;1.23;;;27.60;99.90;;;;;;4139497;28;20458;-66
2021/08/15 21:11:51;;;;;;;4.50;1.70;;;27.50;99.90;;;;;;4158681;28;20457;-65
2021/08/15 21:13:55;;;;;;;2.45;1.42;;;27.50;99.90;;;;;;4153528;28;20057;-66
2021/08/15 21:16:00;;;;;;;5.35;1.60;;;27.50;99.90;;;;;;4158829;28;20092;-66
2021/08/15 21:18:05;;;;;;;2.65;1.60;;;27.50;99.90;;;;;;4154171;28;20050;-66
2021/08/15 21:20:10;;;;;;;2.10;1.50;;;27.50;99.90;;;;;;4157960;28;20104;-66
2021/08/15 21:22:14;;;;;;;2.63;1.50;;;27.50;99.90;;;;;;4161533;28;20045;-65
2021/08/15 21:24:18;;;;;;;3.78;2.33;;;27.50;99.90;;;;;;4161141;28;20491;-66
2021/08/15 21:26:25;;;;;;;3.88;1.70;;;27.50;99.90;;;;;;4160443;28;20507;-65
2021/08/15 21:28:30;;;;;;;6.07;1.88;;;27.40;99.90;;;;;;4159549;28;20042;-65
2021/08/15 21:30:35;;;;;;;5.20;1.98;;;27.50;99.90;;;;;;4158701;28;20315;-65
2021/08/15 21:32:40;;;;;;;3.95;1.98;;;27.40;99.90;;;;;;4159065;28;20515;-64
2021/08/15 21:34:44;;;;;;;4.45;2.17;;;27.50;99.90;;;;;;4155283;28;20077;-65
2021/08/15 21:36:48;;;;;;;4.32;1.80;;;27.50;99.90;;;;;;4154987;28;20123;-65
2021/08/15 21:38:53;;;;;;;3.20;1.83;;;27.50;99.90;;;;;;4153088;28;20054;-64
2021/08/15 21:40:57;;;;;;;4.85;1.98;;;27.50;99.90;;;;;;4159704;28;20524;-64
2021/08/15 21:43:01;;;;;;;5.53;1.95;;;27.50;99.90;;;;;;4152138;28;20064;-65
2021/08/15 21:45:07;;;;;;;5.57;2.00;;;27.50;99.90;;;;;;4158680;28;20041;-65
2021/08/15 21:47:12;;;;;;;6.57;2.60;;;27.50;99.90;;;;;;4157122;28;20073;-66
2021/08/15 21:49:16;;;;;;;7.03;3.00;;;27.50;99.90;;;;;;4159289;28;20059;-66
2021/08/15 21:51:21;;;;;;;5.97;2.40;;;27.50;99.90;;;;;;4161298;28;20504;-65
2021/08/15 21:53:26;;;;;;;7.72;2.55;;;27.50;99.90;;;;;;4159113;28;20049;-65
2021/08/15 21:55:30;;;;;;;11.05;2.80;;;27.50;99.90;;;;;;4160895;28;20492;-65
2021/08/15 21:57:35;;;;;;;7.43;2.40;;;27.50;99.90;;;;;;4161059;28;20049;-66
2021/08/15 21:59:39;;;;;;;9.40;3.00;;;27.50;99.90;;;;;;4152727;28;20049;-66
2021/08/15 22:01:44;;;;;;;5.75;2.20;;;27.50;99.90;;;;;;4158595;28;20072;-66
2021/08/15 22:03:48;;;;;;;8.20;2.53;;;27.50;99.90;;;;;;4164234;28;20466;-66
2021/08/15 22:05:53;;;;;;;6.10;2.22;;;27.60;99.90;;;;;;4164596;28;20147;-65
2021/08/15 22:07:58;;;;;;;4.97;2.00;;;27.50;99.90;;;;;;4158462;28;20514;-66
2021/08/15 22:10:05;;;;;;;5.57;2.22;;;27.60;99.90;;;;;;4163158;28;20321;-65
2021/08/15 22:12:09;;;;;;;7.97;2.25;;;27.60;99.90;;;;;;4163106;28;20042;-65
2021/08/15 22:14:16;;;;;;;7.85;2.88;;;27.50;99.90;;;;;;4161547;28;20435;-66
2021/08/15 22:16:20;;;;;;;11.75;3.40;;;27.50;99.90;;;;;;4158263;28;20046;-65
2021/08/15 22:18:25;;;;;;;9.75;3.22;;;27.50;99.90;;;;;;4163965;28;20049;-65
2021/08/15 22:20:30;;;;;;;9.27;3.47;;;27.50;99.90;;;;;;4160149;28;20096;-66
2021/08/15 22:22:37;;;;;;;8.75;2.83;;;27.50;99.90;;;;;;4151821;28;20450;-66
2021/08/15 22:24:42;;;;;;;7.03;2.63;;;27.50;99.90;;;;;;4163985;28;20056;-66
2021/08/15 22:26:46;;;;;;;8.45;2.00;;;27.50;99.90;;;;;;4155859;28;20064;-65
2021/08/15 22:28:51;;;;;;;7.60;2.50;;;27.50;99.90;;;;;;4163790;28;20088;-66
2021/08/15 22:30:55;;;;;;;5.45;2.47;;;27.50;99.90;;;;;;4157324;28;20132;-66
2021/08/15 22:33:00;;;;;;;5.00;2.28;;;27.50;99.90;;;;;;4163842;28;20045;-65
2021/08/15 22:35:06;;;;;;;5.65;2.40;;;27.50;99.90;;;;;;4163533;28;20144;-65
2021/08/15 22:37:10;;;;;;;5.05;2.38;;;27.50;99.90;;;;;;4162494;28;20057;-65
2021/08/15 22:39:15;;;;;;;5.18;2.53;;;27.50;99.90;;;;;;4159114;28;20111;-65
2021/08/15 22:41:19;;;;;;;4.97;2.70;;;27.50;99.90;;;;;;4162557;28;20048;-65
2021/08/15 22:43:23;;;;;;;7.32;2.58;;;27.50;99.90;;;;;;4156217;28;20132;-65
2021/08/15 22:45:28;;;;;;;7.75;2.70;;;27.50;99.90;;;;;;4164099;28;20049;-66
2021/08/15 22:47:32;;;;;;;4.95;2.25;;;27.60;99.90;;;;;;4163425;28;20076;-65
2021/08/15 22:49:36;;;;;;;3.97;1.80;;;27.50;99.90;;;;;;4158910;28;20037;-65
2021/08/15 22:51:41;;;;;;;5.78;2.25;;;27.50;99.90;;;;;;4163842;28;20576;-66
2021/08/15 22:53:45;;;;;;;6.47;2.88;;;27.50;99.90;;;;;;4163694;28;20049;-66
2021/08/15 22:55:50;;;;;;;6.45;2.88;;;27.50;99.90;;;;;;4170925;28;20053;-66
2021/08/15 22:57:55;;;;;;;10.18;4.43;;;27.60;99.90;;;;;;4164060;28;20103;-65
2021/08/15 22:59:59;;;;;;;13.13;5.25;;;27.50;99.90;;;;;;4176834;28;20079;-65
2021/08/15 23:02:04;;;;;;;14.07;7.88;;;27.60;99.90;;;;;;4177456;28;20052;-66
2021/08/15 23:04:09;;;;;;;9.75;5.43;;;27.50;99.90;;;;;;4177403;28;20360;-65
2021/08/15 23:06:15;;;;;;;9.50;4.25;;;27.50;99.90;;;;;;4177677;28;20190;-65
2021/08/15 23:08:19;;;;;;;6.10;3.50;;;27.50;99.90;;;;;;4161474;28;20408;-65
2021/08/15 23:10:23;;;;;;;9.25;5.00;;;27.50;99.90;;;;;;4172264;28;20049;-65
2021/08/15 23:12:27;;;;;;;7.93;3.50;;;27.60;99.90;;;;;;4170934;28;20049;-65
2021/08/15 23:14:32;;;;;;;5.32;2.45;;;27.60;99.90;;;;;;4165802;28;20577;-65
2021/08/15 23:16:36;;;;;;;7.85;3.25;;;27.60;99.90;;;;;;4160609;28;20049;-65
2021/08/15 23:18:41;;;;;;;9.10;3.30;;;27.60;99.90;;;;;;4160148;28;20042;-65
2021/08/15 23:20:45;;;;;;;7.18;3.50;;;27.60;99.90;;;;;;4177142;28;20055;-66
2021/08/15 23:22:50;;;;;;;8.25;2.78;;;27.60;99.90;;;;;;4176465;28;20075;-64
2021/08/15 23:24:55;;;;;;;9.80;5.30;;;27.60;99.90;;;;;;4175897;28;20115;-65
2021/08/15 23:27:00;;;;;;;11.35;5.10;;;27.60;99.90;;;;;;4144558;28;20060;-66
2021/08/15 23:29:04;;;;;;;8.85;4.50;;;27.60;99.90;;;;;;4175212;28;20072;-66
2021/08/15 23:31:09;;;;;;;7.25;3.83;;;27.60;99.90;;;;;;4170391;28;20075;-65
2021/08/15 23:33:13;;;;;;;10.10;2.97;;;27.60;99.90;;;;;;4162218;28;20069;-66
2021/08/15 23:35:18;;;;;;;4.97;2.47;;;27.60;99.90;;;;;;4162192;28;20768;-66
2021/08/15 23:37:23;;;;;;;5.97;2.20;;;27.60;99.90;;;;;;4155326;28;20056;-66
2021/08/15 23:39:27;;;;;;;4.55;2.25;;;27.60;99.90;;;;;;4154847;28;20144;-66
2021/08/15 23:41:32;;;;;;;7.13;2.33;;;27.70;99.90;;;;;;4157353;28;20049;-65
2021/08/15 23:43:36;;;;;;;5.03;1.90;;;27.70;99.90;;;;;;4157027;28;20121;-67
2021/08/15 23:45:41;;;;;;;4.63;2.80;;;27.70;99.90;;;;;;4161959;28;20091;-66
2021/08/15 23:47:46;;;;;;;4.63;2.00;;;27.70;99.90;;;;;;4159485;28;20654;-67
2021/08/15 23:49:51;;;;;;;4.13;2.00;;;27.80;99.90;;;;;;4163357;28;20728;-65
2021/08/15 23:51:56;;;;;;;5.07;2.50;;;27.80;99.90;;;;;;4162401;28;20049;-65
2021/08/15 23:54:00;;;;;;;6.18;2.00;;;27.80;99.90;;;;;;4161722;28;20045;-66
2021/08/15 23:56:08;;;;;;;4.05;1.83;;;27.80;99.90;;;;;;4157336;28;20057;-67
2021/08/15 23:58:13;;;;;;;3.97;1.98;;;27.80;99.90;;;;;;4157707;28;20076;-67
